Date,TemperatureHighF,TemperatureAvgF,TemperatureLowF,DewpointHighF,DewpointAvgF,DewpointLowF,HumidityHigh,HumidityAvg,HumidityLow,PressureMaxIn,PressureMinIn,WindSpeedMaxMPH,WindSpeedAvgMPH,GustSpeedMaxMPH,PrecipitationSumIn
2014-1-1,13,11,10,9,5,2,84,77,66,30.44,30.31,9,1,11,0.07
2014-1-2,14,10,3,8,3,-4,82,73,61,30.41,30.24,10,1,14,0.00
2014-1-3,16,7,-5,6,-1,-10,82,69,56,30.49,30.06,6,1,18,0.00
2014-1-4,30,24,15,26,18,6,91,77,65,30.05,29.87,15,2,21,0.08
2014-1-5,29,24,16,27,22,13,91,89,87,30.06,29.81,6,1,10,0.28
2014-1-6,16,4,-2,13,0,-7,92,84,81,30.12,29.81,14,4,22,0.00
2014-1-7,8,3,-2,4,-1,-6,85,83,82,30.34,30.11,10,3,19,0.01
2014-1-8,17,10,3,13,7,-1,87,85,83,30.56,30.34,6,1,11,0.00
2014-1-9,21,14,9,18,10,6,87,84,76,30.60,30.28,3,0,7,0.00
2014-1-10,40,32,22,39,29,18,94,91,87,30.28,29.58,5,1,12,0.63
2014-1-11,41,36,32,39,34,28,94,91,83,29.69,29.39,11,3,19,0.10
2014-1-12,40,35,31,30,28,27,83,76,63,29.91,29.67,9,2,16,0.00
2014-1-13,42,39,31,35,32,26,87,76,68,29.71,29.53,8,2,15,0.00
2014-1-14,35,30,23,29,24,20,90,80,60,29.75,29.63,18,2,23,0.01
2014-1-15,29,23,18,26,18,12,89,79,66,30.03,29.61,17,4,25,0.01
2014-1-16,31,23,17,28,19,11,89,82,77,29.92,29.58,8,2,16,0.04
2014-1-17,31,22,17,29,18,13,90,82,77,29.94,29.59,11,3,18,0.02
2014-1-18,23,19,12,19,14,8,96,80,68,29.93,29.86,8,1,14,0.02
2014-1-19,33,26,12,29,21,8,87,83,79,29.86,29.52,16,4,27,0.00
2014-1-20,33,23,10,29,17,2,85,76,67,30.13,29.53,5,1,13,0.00
2014-1-21,13,9,2,0,-2,-5,74,62,53,30.30,30.14,5,0,13,0.00
2014-1-22,13,10,7,7,3,-2,84,75,67,30.23,29.92,11,1,19,0.04
2014-1-23,18,11,6,8,3,0,83,72,50,30.53,30.04,4,0,10,0.01
2014-1-24,22,12,0,20,7,-6,90,78,58,30.48,29.46,17,5,27,0.11
2014-1-25,29,18,8,27,14,4,92,86,76,29.81,29.33,13,4,22,0.22
2014-1-26,23,14,8,20,10,5,89,85,81,29.80,29.39,10,1,18,0.14
2014-1-27,15,6,0,12,1,-5,88,83,79,30.36,29.56,15,2,21,0.03
2014-1-28,9,4,-3,4,0,-7,85,83,80,30.38,30.19,12,3,21,0.00
2014-1-29,20,13,7,10,6,3,85,74,61,30.19,30.09,19,5,28,0.00
2014-1-30,31,23,14,28,14,5,90,70,54,30.09,29.72,18,3,22,0.06
2014-1-31,32,24,19,28,18,14,88,77,70,30.16,29.83,8,2,14,0.00
2014-2-1,27,23,20,24,20,16,89,87,85,30.16,29.88,5,0,9,0.25
2014-2-2,24,20,8,20,15,4,89,79,67,30.34,30.05,7,1,13,0.00
2014-2-3,23,12,-1,14,6,-5,85,78,66,30.42,30.32,8,1,12,0.00
2014-2-4,25,16,7,18,11,3,92,78,69,30.48,30.21,2,0,10,0.00
2014-2-5,26,19,14,17,13,6,88,77,56,30.42,30.08,8,1,10,0.13
2014-2-6,17,13,10,15,9,4,92,81,73,30.42,30.32,15,3,21,0.00
2014-2-7,14,11,8,7,5,2,84,77,69,30.35,30.30,17,5,23,0.00
2014-2-8,20,13,8,13,8,2,83,80,69,30.35,30.19,6,1,9,0.02
2014-2-9,24,17,14,18,12,10,92,81,68,30.23,30.08,7,1,13,0.01
2014-2-10,18,14,9,12,8,2,85,77,67,30.45,30.23,8,2,16,0.00
2014-2-11,18,11,3,6,3,-2,79,69,59,30.55,30.45,5,0,9,0.00
2014-2-12,23,12,-2,10,3,-6,83,70,53,30.46,30.09,3,0,8,0.00
2014-2-13,32,25,19,21,13,9,78,63,40,30.10,29.50,8,1,13,0.00
2014-2-14,27,24,16,24,18,11,88,78,69,29.91,29.48,12,3,16,0.01
2014-2-15,24,16,7,13,9,2,83,73,62,30.11,29.90,5,1,11,0.00
2014-2-16,29,21,14,18,14,9,86,76,60,30.36,29.98,4,0,9,0.02
2014-2-17,20,15,10,16,10,5,89,81,60,30.38,29.71,11,2,18,0.36
2014-2-18,42,30,16,34,24,14,91,79,63,30.00,29.65,7,1,14,0.02
2014-2-19,42,35,27,32,28,23,90,75,61,30.03,29.61,11,2,15,0.00
2014-2-20,42,34,28,40,31,24,94,87,76,30.03,29.32,14,3,27,0.69
2014-2-21,39,32,27,35,24,16,89,75,57,29.75,29.37,22,10,44,0.06
2014-2-22,32,27,23,19,16,15,76,65,57,30.04,29.76,14,5,22,0.00
2014-2-23,25,22,17,16,13,11,78,68,60,30.14,30.03,15,4,23,0.00
2014-2-24,22,18,15,13,11,9,82,73,63,30.23,30.12,15,4,24,0.00
2014-2-25,21,16,11,15,10,5,84,76,63,30.22,30.08,12,3,20,0.00
2014-2-26,15,10,4,12,4,-1,86,75,63,30.16,29.61,18,4,24,0.01
2014-2-27,15,8,-4,12,0,-11,87,71,45,30.27,29.57,11,3,18,0.01
2014-2-28,19,8,-6,8,-3,-12,79,62,45,30.35,30.10,8,1,16,0.00
2014-3-1,25,20,12,18,13,8,86,75,60,30.36,30.07,4,1,13,0.18
2014-3-2,20,12,4,9,4,-4,84,72,59,30.45,30.32,3,0,9,0.01
2014-3-3,15,6,-5,1,-5,-11,79,64,45,30.57,30.45,6,0,14,0.00
2014-3-4,22,16,9,12,7,0,78,69,63,30.45,30.25,7,1,9,0.01
2014-3-5,24,17,12,12,8,3,79,68,51,30.56,30.32,8,1,14,0.00
2014-3-6,29,18,6,13,8,2,84,68,51,30.56,30.18,9,1,19,0.00
2014-3-7,48,31,12,29,19,8,85,63,38,30.17,29.90,9,1,13,0.00
2014-3-8,37,31,20,29,22,14,81,70,58,30.24,29.95,8,1,12,0.00
2014-3-9,38,26,12,32,18,9,89,72,44,30.24,29.84,12,3,21,0.00
2014-3-10,50,42,37,36,33,31,80,71,57,29.83,29.59,18,4,22,0.00
2014-3-11,48,41,36,36,34,31,86,76,61,29.77,29.64,2,0,12,0.01
2014-3-12,37,27,13,31,17,1,90,69,42,30.10,29.70,10,2,15,0.12
2014-3-13,28,18,4,21,9,-2,87,67,53,30.19,29.93,7,1,15,0.00
2014-3-14,52,40,27,34,30,21,86,68,44,29.93,29.55,23,4,30,0.00
2014-3-15,38,33,26,32,21,7,81,63,45,30.34,29.75,11,3,16,0.00
2014-3-16,25,17,8,10,3,-2,66,57,46,30.46,30.28,10,2,13,0.00
2014-3-17,32,20,8,14,7,0,71,57,45,30.26,29.91,9,2,15,0.00
2014-3-18,45,34,22,32,23,14,78,66,54,30.00,29.84,9,2,18,0.00
2014-3-19,44,37,32,42,34,30,92,87,73,29.86,29.57,14,3,18,0.11
2014-3-20,38,34,26,30,24,20,90,70,54,30.09,29.86,14,4,18,0.00
2014-3-21,44,34,21,35,25,18,89,72,52,30.09,29.70,9,1,16,0.05
2014-3-22,38,34,24,36,27,12,91,77,62,30.30,29.71,10,2,15,0.00
2014-3-23,26,20,13,14,9,5,73,62,52,30.45,30.31,12,1,13,0.00
2014-3-24,28,21,12,15,11,7,83,66,50,30.41,30.08,11,2,18,0.00
2014-3-25,27,23,14,22,15,8,88,71,54,30.23,29.96,10,2,19,0.03
2014-3-26,33,22,9,19,11,5,87,67,48,30.39,30.11,9,1,13,0.00
2014-3-27,42,36,32,39,28,19,89,75,54,30.10,29.55,13,1,18,0.07
2014-3-28,48,39,32,45,35,26,91,85,75,30.21,29.46,15,2,25,0.01
2014-3-29,43,35,31,29,27,25,86,75,55,30.25,30.16,6,1,12,0.01
2014-3-30,52,37,22,30,24,19,89,62,39,30.28,30.10,5,0,11,0.00
2014-3-31,63,50,35,37,32,26,75,54,33,30.14,29.83,12,2,17,0.00
2014-4-1,56,41,33,44,32,24,82,69,49,30.05,29.68,15,4,32,0.04
2014-4-2,52,40,27,30,26,22,81,61,42,30.21,30.05,3,0,9,0.00
2014-4-3,42,37,32,30,27,22,82,67,52,30.17,29.83,12,3,27,0.09
2014-4-4,44,36,32,42,33,28,93,88,79,29.82,29.43,22,4,26,0.00
2014-4-5,47,37,30,27,24,22,83,62,39,30.20,29.83,14,3,22,0.00
2014-4-6,57,43,27,30,26,21,78,53,33,30.21,30.00,10,1,16,0.00
2014-4-7,57,46,34,32,29,27,75,54,38,30.00,29.57,7,1,13,0.00
2014-4-8,59,49,39,39,33,27,74,56,45,29.88,29.56,8,2,15,0.00
2014-4-9,57,47,31,35,28,22,72,49,36,30.02,29.86,14,2,17,0.00
2014-4-10,60,53,44,43,36,32,63,51,41,29.89,29.69,13,2,22,0.00
2014-4-11,64,50,33,36,30,25,87,51,25,30.03,29.89,12,2,16,0.00
2014-4-12,70,52,42,49,37,29,86,59,30,30.05,29.77,10,1,16,0.11
2014-4-13,65,57,50,58,52,46,93,82,67,29.80,29.52,12,2,18,0.31
2014-4-14,64,45,26,59,40,23,93,82,69,29.93,29.30,14,3,29,0.02
2014-4-15,34,28,23,23,16,9,89,64,36,30.28,29.91,10,2,20,0.00
2014-4-16,48,36,22,27,20,15,78,56,37,30.44,30.28,6,1,15,0.00
2014-4-17,63,48,34,39,32,25,74,56,38,30.31,30.19,15,3,18,0.00
2014-4-18,59,50,42,42,37,28,83,61,44,30.36,30.24,10,2,15,0.00
2014-4-19,62,48,33,35,30,26,80,54,33,30.46,30.28,7,1,15,0.00
2014-4-20,75,59,42,43,35,29,63,43,29,30.32,30.04,9,1,11,0.00
2014-4-21,77,64,56,54,45,35,91,54,38,30.04,29.74,10,1,13,0.18
2014-4-22,56,47,39,54,36,28,92,68,54,30.03,29.69,8,3,16,0.00
2014-4-23,57,44,31,32,28,24,81,56,32,30.16,30.02,8,1,14,0.00
2014-4-24,59,50,43,35,30,24,66,47,31,30.12,29.81,19,3,20,0.00
2014-4-25,60,49,40,43,38,26,89,68,42,29.81,29.66,9,2,19,0.12
2014-4-26,59,49,39,41,35,32,79,61,41,30.08,29.80,6,1,13,0.00
2014-4-27,58,47,39,35,32,29,74,59,42,30.16,30.00,17,4,23,0.00
2014-4-28,58,50,44,39,35,31,66,58,45,30.02,29.71,24,6,26,0.00
2014-4-29,67,54,44,57,47,37,92,80,49,29.73,29.51,10,2,35,0.31
2014-4-30,59,53,44,50,47,39,88,79,64,29.80,29.68,7,1,15,0.02
2014-5-1,47,44,40,41,40,36,91,85,77,29.79,29.70,12,2,23,0.19
2014-5-2,50,46,43,44,43,41,93,88,77,29.79,29.73,11,3,20,0.00
2014-5-3,59,51,46,46,42,37,92,74,48,29.83,29.61,14,3,27,0.00
2014-5-4,57,51,46,41,35,29,79,56,41,30.09,29.83,8,2,19,0.00
2014-5-5,59,49,42,38,36,33,72,61,46,30.10,29.96,6,1,11,0.00
2014-5-6,64,53,42,41,39,36,83,61,41,30.09,29.98,9,2,17,0.00
2014-5-7,62,53,43,53,46,38,91,78,63,30.05,29.89,11,3,19,0.17
2014-5-8,89,70,51,68,57,45,81,65,49,29.92,29.78,8,2,14,0.00
2014-5-9,78,68,55,63,58,45,91,72,54,29.79,29.62,15,4,25,0.00
2014-5-10,68,58,48,46,43,40,82,58,40,29.99,29.79,9,2,19,0.00
2014-5-11,84,67,46,59,50,40,83,56,34,30.01,29.88,7,1,14,0.00
2014-5-12,80,68,61,71,63,55,93,82,65,29.94,29.84,10,1,18,0.00
2014-5-13,74,66,53,68,61,49,91,84,72,30.09,29.76,11,3,21,0.00
2014-5-14,59,54,48,50,46,42,90,75,56,30.16,29.99,3,0,11,0.00
2014-5-15,48,43,36,45,40,32,92,87,75,30.06,29.80,7,1,15,0.00
2014-5-16,49,41,31,37,33,28,92,74,59,30.08,30.03,8,1,12,0.00
2014-5-17,58,47,36,40,34,31,88,64,37,30.16,30.06,11,2,17,0.00
2014-5-18,67,55,41,41,37,32,81,53,33,30.24,30.16,11,2,18,0.00
2014-5-19,73,60,44,51,42,39,84,55,32,30.27,30.06,8,1,15,0.07
2014-5-20,80,66,53,64,56,47,87,71,58,30.13,29.81,9,2,15,0.04
2014-5-21,83,72,62,68,60,51,93,69,34,29.86,29.78,8,1,14,0.00
2014-5-22,70,63,54,56,50,47,81,65,48,30.08,29.86,12,1,16,0.00
2014-5-23,70,59,49,52,47,43,78,65,52,30.17,30.09,9,1,17,0.00
2014-5-24,79,63,45,52,47,42,91,60,37,30.24,30.13,5,0,12,0.00
2014-5-25,82,68,51,55,51,47,90,58,37,30.15,30.02,6,1,12,0.00
2014-5-26,84,72,56,66,59,51,84,66,46,30.04,29.89,10,2,14,0.00
2014-5-27,81,74,68,70,66,62,89,79,67,29.92,29.84,10,1,14,0.00
2014-5-28,72,67,62,66,59,51,88,75,60,30.07,29.87,5,1,10,0.00
2014-5-29,80,67,52,58,54,48,87,65,44,30.14,30.06,5,1,10,0.00
2014-5-30,86,72,56,60,56,52,85,59,36,30.20,30.10,4,0,10,0.00
2014-5-31,88,75,60,60,58,53,82,59,38,30.20,30.05,3,0,10,0.00
2014-6-1,90,77,60,61,55,46,62,48,34,30.11,29.89,11,1,17,0.00
2014-6-2,84,76,72,72,66,61,88,70,59,29.92,29.75,20,3,28,0.19
2014-6-3,74,69,62,64,57,51,87,65,48,29.90,29.74,14,3,25,0.01
2014-6-4,71,63,58,60,56,52,90,78,67,29.90,29.84,4,0,8,0.03
2014-6-5,77,63,47,53,47,43,92,59,35,29.99,29.86,6,1,10,0.00
2014-6-6,82,66,50,54,49,43,86,57,36,30.01,29.93,6,1,9,0.00
2014-6-7,85,72,54,56,52,49,89,53,31,30.03,29.83,12,0,12,0.00
2014-6-8,79,70,61,60,57,53,89,64,46,29.98,29.79,4,0,10,0.15
2014-6-9,81,70,58,60,55,51,87,61,45,30.03,29.89,5,0,10,0.00
2014-6-10,78,68,60,62,56,52,82,65,51,29.94,29.84,7,1,11,0.03
2014-6-11,74,64,57,68,61,54,94,91,78,29.84,29.67,6,1,10,0.24
2014-6-12,79,66,57,65,60,55,95,83,61,29.77,29.69,9,2,14,0.01
2014-6-13,66,59,53,58,48,45,81,67,49,30.03,29.76,11,1,18,0.00
2014-6-14,78,63,45,51,47,42,92,60,33,30.15,30.01,4,0,8,0.00
2014-6-15,82,71,57,64,55,48,75,58,42,30.06,29.85,9,1,14,0.00
2014-6-16,86,78,69,67,62,58,81,61,41,30.02,29.89,8,1,13,0.00
2014-6-17,83,77,71,71,66,59,86,69,56,29.92,29.75,14,3,33,0.03
2014-6-18,71,68,64,68,65,62,94,91,78,30.02,29.84,13,0,22,0.14
2014-6-19,79,70,63,66,62,53,91,77,62,30.14,30.00,7,1,15,0.00
2014-6-20,68,63,61,62,57,50,92,82,62,30.08,29.94,6,1,14,0.00
2014-6-21,79,69,59,67,62,57,92,78,59,30.00,29.85,8,1,12,0.00
2014-6-22,85,74,64,69,66,62,95,78,56,29.92,29.82,5,0,12,0.00
2014-6-23,78,70,66,71,66,59,93,86,76,29.88,29.80,3,0,5,0.00
2014-6-24,82,73,69,71,68,67,94,85,63,29.86,29.82,8,1,9,0.00
2014-6-25,77,70,66,69,66,64,94,88,69,29.99,29.85,4,0,9,0.00
2014-6-26,80,70,61,65,63,59,94,79,59,30.07,29.98,4,0,6,0.00
2014-6-27,87,76,63,68,65,60,90,70,51,30.07,29.99,5,0,8,0.00
2014-6-28,87,76,69,73,68,63,88,76,58,30.06,29.95,9,1,15,0.00
2014-6-29,86,78,74,72,69,65,89,75,51,29.97,29.85,14,2,20,0.00
2014-6-30,88,79,69,74,71,66,91,77,57,29.90,29.65,10,2,21,0.00
2014-7-1,80,72,65,67,64,61,94,77,53,29.72,29.50,10,3,22,0.00
2014-7-2,71,66,61,63,58,55,85,77,66,29.96,29.71,10,3,19,0.00
2014-7-3,74,64,54,57,52,48,91,68,45,30.16,29.95,8,1,16,0.00
2014-7-4,80,67,52,55,50,46,92,59,35,30.30,30.16,7,0,9,0.00
2014-7-5,78,67,52,57,54,49,92,65,47,30.27,30.04,12,2,16,0.00
2014-7-6,81,72,64,71,64,57,93,76,65,30.04,29.64,7,2,18,0.28
2014-7-7,84,76,69,72,66,61,93,74,47,29.71,29.59,11,3,23,0.13
2014-7-8,75,70,66,65,63,60,94,78,64,29.75,29.54,10,2,20,0.00
2014-7-9,74,67,60,59,56,53,89,70,51,30.02,29.74,7,1,13,0.00
2014-7-10,77,66,53,57,54,50,92,67,44,30.18,30.02,5,0,7,0.00
2014-7-11,81,70,56,61,57,53,92,68,46,30.22,30.09,6,0,9,0.00
2014-7-12,80,71,62,73,66,59,91,83,61,30.12,29.82,6,1,12,0.00
2014-7-13,80,73,66,72,66,62,94,78,58,29.88,29.75,14,2,23,0.00
2014-7-14,78,70,60,65,60,54,93,71,47,29.84,29.74,5,0,12,0.00
2014-7-15,66,61,57,59,55,50,92,79,66,29.93,29.74,9,1,18,0.00
2014-7-16,71,62,55,57,52,48,85,72,58,30.02,29.91,6,1,13,0.00
2014-7-17,76,64,50,59,52,48,93,67,43,30.13,30.02,9,1,14,0.00
2014-7-18,78,67,52,57,54,50,92,67,44,30.21,30.11,5,0,8,0.00
2014-7-19,82,71,57,61,58,53,90,65,43,30.11,29.98,6,0,9,0.00
2014-7-20,84,72,60,63,59,56,92,67,45,30.06,30.00,4,0,12,0.00
2014-7-21,86,75,63,68,64,59,91,70,51,30.09,30.02,6,1,12,0.00
2014-7-22,90,77,66,72,68,63,91,73,51,30.05,29.87,14,2,19,0.05
2014-7-23,77,69,62,66,58,54,89,70,52,30.10,29.92,6,1,10,0.00
2014-7-24,78,66,54,56,52,49,89,63,44,30.16,30.03,7,0,11,0.00
2014-7-25,76,65,52,59,54,49,90,69,53,30.09,29.91,8,1,12,0.00
2014-7-26,80,71,62,67,62,58,87,74,60,29.93,29.75,7,1,11,0.00
2014-7-27,84,71,63,71,65,60,94,82,55,29.79,29.59,15,1,21,0.02
2014-7-28,70,63,55,61,54,48,89,73,54,30.02,29.77,5,0,10,0.00
2014-7-29,75,63,51,60,54,48,90,74,54,30.02,29.94,11,1,13,0.00
2014-7-30,75,64,55,64,55,50,92,74,46,30.00,29.95,9,1,16,0.05
2014-7-31,79,67,54,63,58,50,89,72,57,30.00,29.98,10,2,14,0.00
2014-8-1,84,72,62,65,61,58,90,69,48,30.08,29.99,7,1,11,0.00
2014-8-2,84,71,58,62,58,55,92,68,43,30.13,30.06,5,1,13,0.00
2014-8-3,87,73,58,65,60,54,92,67,43,30.12,30.02,5,1,12,0.00
2014-8-4,85,75,65,68,65,61,91,71,55,30.07,29.99,9,1,16,0.00
2014-8-5,79,73,68,68,65,63,86,77,65,30.04,29.98,5,0,11,0.00
2014-8-6,82,71,60,64,59,52,92,70,36,30.05,29.99,5,0,10,0.00
2014-8-7,83,71,56,60,57,54,92,66,41,30.12,30.03,6,0,7,0.00
2014-8-8,83,72,61,64,59,55,85,65,40,30.13,30.06,6,1,11,0.00
2014-8-9,81,70,58,61,58,53,85,66,48,30.14,30.05,9,1,13,0.00
2014-8-10,85,73,60,66,62,56,89,70,50,30.09,29.94,5,1,10,0.00
2014-8-11,80,73,69,69,66,64,87,79,68,29.96,29.71,4,0,8,0.14
2014-8-12,69,64,57,65,61,54,93,92,88,29.91,29.65,7,1,10,0.42
2014-8-13,79,66,52,60,54,50,94,70,44,30.00,29.91,11,1,16,0.00
2014-8-14,71,62,51,52,48,43,89,62,46,30.09,30.00,8,1,16,0.00
2014-8-15,75,61,46,56,49,43,92,67,43,30.07,29.95,13,2,14,0.00
2014-8-16,80,69,56,67,60,50,89,75,61,29.94,29.85,11,2,18,0.00
2014-8-17,76,71,64,67,65,61,92,82,69,29.97,29.89,7,1,9,0.04
2014-8-18,82,71,60,68,63,57,91,78,62,29.95,29.78,4,0,8,0.00
2014-8-19,76,70,66,70,67,63,93,90,76,29.78,29.68,8,0,14,0.79
2014-8-20,80,72,64,68,66,62,95,81,63,29.93,29.72,8,1,15,0.10
2014-8-21,80,72,64,72,67,62,93,85,72,29.97,29.91,7,0,8,0.03
2014-8-22,82,75,69,74,71,68,94,87,75,29.98,29.89,3,0,7,0.00
2014-8-23,83,74,67,69,66,64,91,77,55,30.02,29.94,6,1,13,0.00
2014-8-24,82,74,67,69,67,65,91,80,64,30.06,29.99,8,1,10,0.00
2014-8-25,85,75,69,76,70,66,94,86,69,30.03,29.96,5,0,7,0.42
2014-8-26,81,72,64,73,68,60,94,87,74,30.10,29.98,7,1,20,0.59
2014-8-27,78,67,59,64,59,56,94,76,56,30.14,30.07,3,0,12,0.00
2014-8-28,75,65,54,56,53,49,86,68,48,30.17,30.07,7,0,13,0.00
2014-8-29,76,68,62,69,61,52,88,78,65,30.09,29.91,5,0,10,0.00
2014-8-30,83,76,71,73,69,66,91,79,66,29.92,29.78,17,2,22,0.06
2014-8-31,83,75,68,70,67,65,93,79,58,29.92,29.84,7,1,11,0.00
2014-9-1,80,74,68,72,69,65,94,84,68,29.87,29.70,11,2,22,0.33
2014-9-2,81,72,63,67,62,58,92,73,47,29.92,29.78,7,1,14,0.00
2014-9-3,82,70,59,65,60,57,94,72,47,30.01,29.93,8,1,11,0.00
2014-9-4,85,73,66,72,66,60,92,80,63,29.99,29.86,10,1,14,0.44
2014-9-5,81,75,65,74,70,63,92,87,78,29.97,29.85,11,2,15,0.32
2014-9-6,75,66,56,62,56,52,92,74,47,30.14,29.97,14,1,14,0.00
2014-9-7,78,64,51,61,54,49,93,72,43,30.21,30.12,8,0,9,0.00
2014-9-8,78,66,54,58,54,48,90,69,35,30.17,30.01,5,0,10,0.00
2014-9-9,79,70,60,62,59,56,90,71,52,30.03,29.90,7,0,13,0.00
2014-9-10,76,68,56,72,64,52,94,87,78,29.91,29.49,13,2,20,0.67
2014-9-11,59,54,50,51,48,45,90,81,70,30.25,29.72,8,1,15,0.00
2014-9-12,57,51,47,47,45,43,88,80,61,30.34,30.25,4,0,8,0.00
2014-9-13,48,47,46,43,42,41,83,82,80,30.34,30.33,0,0,0,0.11
2014-9-14,62,52,42,48,44,39,92,75,57,30.36,30.19,9,1,17,0.00
2014-9-15,62,53,46,54,49,43,92,86,71,30.18,30.07,3,0,8,0.02
2014-9-16,64,53,45,52,46,41,94,77,51,30.19,30.09,10,1,15,0.00
2014-9-17,67,53,40,52,45,38,93,76,52,30.09,29.99,8,1,15,0.00
2014-9-18,69,54,44,56,49,41,93,83,61,30.20,30.04,3,0,9,0.00
2014-9-19,72,59,47,56,50,45,93,76,54,30.24,29.96,10,1,14,0.00
2014-9-20,76,66,59,67,59,49,93,77,62,29.96,29.70,13,2,22,0.18
2014-9-21,65,58,48,63,53,39,94,84,71,30.09,29.59,10,2,19,0.26
2014-9-22,62,52,40,50,44,37,89,73,59,30.27,30.10,8,1,14,0.00
2014-9-23,73,58,44,56,50,41,93,77,52,30.34,30.27,8,1,11,0.00
2014-9-24,75,61,49,56,52,47,93,75,47,30.41,30.30,5,0,9,0.00
2014-9-25,78,63,52,60,54,49,92,75,48,30.32,30.22,4,0,6,0.00
2014-9-26,78,63,51,58,53,48,92,73,42,30.30,30.23,4,0,8,0.00
2014-9-27,78,63,50,60,54,47,93,74,48,30.30,30.16,4,0,10,0.00
2014-9-28,78,65,54,60,56,52,93,76,51,30.19,30.05,2,0,6,0.00
2014-9-29,78,63,51,61,55,49,94,78,54,30.05,29.89,6,1,13,0.01